Time;durP1;ratioP1;P1;durP2;ratioP2;P2;SDS_P1;SDS_P2;PMS_P1;PMS_P2;Temp;Humidity;BMP_temperature;BMP_pressure;BME280_temperature;BME280_humidity;BME280_pressure;Samples;Min_cycle;Max_cycle;Signal;HPM_P1;HPM_P2
2022/10/26 00:00:48;;;;;;;7.22;4.00;;;14.00;99.90;;;;;;5070691;28;25077;-71
2022/10/26 00:03:15;;;;;;;8.27;4.88;;;14.00;99.90;;;;;;5062762;28;25082;-70
2022/10/26 00:05:40;;;;;;;10.52;4.30;;;14.00;99.90;;;;;;5070282;28;25074;-70
2022/10/26 00:08:07;;;;;;;5.55;3.80;;;13.90;99.90;;;;;;5063928;28;25072;-71
2022/10/26 00:10:34;;;;;;;9.60;4.40;;;13.80;99.90;;;;;;5059900;28;25140;-70
2022/10/26 00:13:01;;;;;;;9.43;4.25;;;13.80;99.90;;;;;;5065490;28;25078;-72
2022/10/26 00:15:27;;;;;;;8.50;4.15;;;13.90;99.90;;;;;;5059234;28;25055;-70
2022/10/26 00:17:53;;;;;;;11.20;4.43;;;14.00;99.90;;;;;;5070362;28;25051;-70
2022/10/26 00:20:18;;;;;;;7.63;4.20;;;14.00;99.90;;;;;;5067046;28;25070;-71
2022/10/26 00:22:45;;;;;;;10.88;3.63;;;14.00;99.90;;;;;;5069587;28;25099;-71
2022/10/26 00:25:10;;;;;;;9.82;4.10;;;14.00;99.90;;;;;;5063382;28;25137;-71
2022/10/26 00:27:36;;;;;;;8.63;4.03;;;14.00;99.90;;;;;;5067775;28;25079;-72
2022/10/26 00:30:03;;;;;;;11.07;4.00;;;13.90;99.90;;;;;;5062767;28;25121;-71
2022/10/26 00:32:29;;;;;;;6.28;3.45;;;13.90;99.90;;;;;;5061062;28;25064;-71
2022/10/26 00:34:54;;;;;;;8.98;3.85;;;13.90;99.90;;;;;;5048002;28;25060;-72
2022/10/26 00:37:20;;;;;;;6.25;4.10;;;13.90;99.90;;;;;;5067146;28;25129;-70
2022/10/26 00:39:46;;;;;;;9.57;4.13;;;13.90;99.90;;;;;;5069623;28;25102;-71
2022/10/26 00:42:17;;;;;;;9.23;4.28;;;13.90;99.90;;;;;;5063160;28;26185;-70
2022/10/26 00:44:45;;;;;;;8.23;4.07;;;13.90;99.90;;;;;;5041492;28;25063;-70
2022/10/26 00:47:28;;;;;;;10.07;4.20;;;13.90;99.90;;;;;;5058784;28;25115;-72
2022/10/26 00:49:56;;;;;;;10.52;4.25;;;13.90;99.90;;;;;;5061043;28;25116;-71
2022/10/26 00:52:23;;;;;;;12.73;4.53;;;13.90;99.90;;;;;;5054355;28;25115;-72
2022/10/26 00:54:50;;;;;;;8.68;4.38;;;13.80;99.90;;;;;;5062769;28;25053;-70
2022/10/26 00:57:17;;;;;;;7.18;4.15;;;13.80;99.90;;;;;;5057303;28;25060;-70
2022/10/26 00:59:44;;;;;;;16.58;5.15;;;13.90;99.90;;;;;;5069489;28;25072;-71
2022/10/26 01:02:10;;;;;;;8.38;4.47;;;13.90;99.90;;;;;;5054579;28;25107;-71
2022/10/26 01:04:36;;;;;;;8.68;4.55;;;13.90;99.90;;;;;;5060560;28;25058;-71
2022/10/26 01:07:04;;;;;;;9.52;4.38;;;13.90;99.90;;;;;;5064605;28;25096;-71
2022/10/26 01:09:31;;;;;;;7.97;3.83;;;13.90;99.90;;;;;;5064273;28;25056;-71
2022/10/26 01:11:56;;;;;;;10.73;4.30;;;13.90;99.90;;;;;;5060182;28;25161;-72
2022/10/26 01:14:24;;;;;;;10.95;4.30;;;13.90;99.90;;;;;;5061251;28;25059;-71
2022/10/26 01:17:00;;;;;;;8.73;4.25;;;13.90;99.90;;;;;;5057585;28;25126;-71
2022/10/26 01:19:28;;;;;;;7.38;3.88;;;13.90;99.90;;;;;;5060684;28;25045;-72
2022/10/26 01:21:57;;;;;;;6.85;4.00;;;13.90;99.90;;;;;;5060652;28;25067;-71
2022/10/26 01:24:56;;;;;;;8.80;4.15;;;13.90;99.90;;;;;;5048999;28;25069;-70
2022/10/26 01:27:28;;;;;;;5.85;3.65;;;13.80;99.90;;;;;;5062352;28;25097;-70
2022/10/26 01:30:12;;;;;;;10.68;4.20;;;13.80;99.90;;;;;;5064359;28;25061;-69
2022/10/26 01:32:47;;;;;;;7.38;3.95;;;13.80;99.90;;;;;;5069780;28;25070;-71
2022/10/26 01:35:28;;;;;;;9.88;4.40;;;13.70;99.90;;;;;;5047827;28;25058;-70
2022/10/26 01:38:03;;;;;;;7.67;3.70;;;13.80;99.90;;;;;;5064425;28;25084;-70
2022/10/26 01:40:38;;;;;;;9.50;4.18;;;13.80;99.90;;;;;;5069350;28;25103;-70
2022/10/26 01:43:08;;;;;;;9.18;3.83;;;13.80;99.90;;;;;;5062208;28;25102;-71
2022/10/26 01:45:38;;;;;;;12.93;4.32;;;13.90;99.90;;;;;;5061825;28;25079;-71
2022/10/26 01:48:06;;;;;;;11.65;3.72;;;13.90;99.90;;;;;;5064427;28;25143;-70
2022/10/26 01:50:33;;;;;;;9.07;4.32;;;14.00;99.90;;;;;;5061334;28;25063;-70
2022/10/26 01:52:58;;;;;;;8.75;4.45;;;14.00;99.90;;;;;;5048175;28;25063;-71
2022/10/26 01:55:44;;;;;;;8.75;3.88;;;14.10;99.90;;;;;;5058383;28;25105;-71
2022/10/26 01:58:34;;;;;;;8.27;4.10;;;14.10;99.90;;;;;;5060947;28;25150;-71
2022/10/26 02:01:21;;;;;;;13.63;4.30;;;14.00;99.90;;;;;;5063602;28;25088;-70
2022/10/26 02:04:08;;;;;;;6.30;3.95;;;14.00;99.90;;;;;;5060564;28;25069;-71
2022/10/26 02:07:07;;;;;;;8.35;4.05;;;14.00;99.90;;;;;;5040209;28;25080;-70
2022/10/26 02:09:44;;;;;;;9.70;3.65;;;14.00;99.90;;;;;;5062122;28;25114;-70
2022/10/26 02:12:39;;;;;;;9.57;4.10;;;13.90;99.90;;;;;;5059465;28;25083;-70
2022/10/26 02:15:11;;;;;;;10.65;3.97;;;13.90;99.90;;;;;;5067203;28;25154;-71
2022/10/26 02:18:06;;;;;;;7.35;4.10;;;13.90;99.90;;;;;;5060531;28;25056;-70
2022/10/26 02:20:43;;;;;;;12.02;4.07;;;14.00;99.90;;;;;;5051306;28;25135;-70
2022/10/26 02:23:11;;;;;;;9.98;3.78;;;14.00;99.90;;;;;;5073112;28;25049;-70
2022/10/26 02:25:44;;;;;;;7.32;3.40;;;13.90;99.90;;;;;;5067038;28;25140;-71
2022/10/26 02:28:16;;;;;;;10.63;3.45;;;14.00;99.90;;;;;;5071571;28;25059;-71
2022/10/26 02:30:44;;;;;;;6.13;3.28;;;14.00;99.90;;;;;;5053542;28;25102;-71
2022/10/26 02:33:12;;;;;;;7.10;3.83;;;14.00;99.90;;;;;;5058359;28;25072;-70
2022/10/26 02:35:40;;;;;;;9.43;3.42;;;14.00;99.90;;;;;;5066946;28;25095;-70
2022/10/26 02:38:09;;;;;;;11.07;3.33;;;14.00;99.90;;;;;;5072668;28;25146;-71
2022/10/26 02:40:36;;;;;;;8.35;3.80;;;14.10;99.90;;;;;;5065690;28;25149;-71
2022/10/26 02:43:06;;;;;;;6.90;3.83;;;14.10;99.90;;;;;;5066671;28;25173;-70
2022/10/26 02:45:55;;;;;;;5.38;3.50;;;14.10;99.90;;;;;;5046108;28;25106;-70
2022/10/26 02:48:22;;;;;;;8.40;4.05;;;14.20;99.90;;;;;;5069623;28;25071;-70
2022/10/26 02:51:06;;;;;;;10.60;3.45;;;14.20;99.90;;;;;;5064238;28;25075;-70
2022/10/26 02:53:33;;;;;;;8.82;3.75;;;14.20;99.90;;;;;;5059522;28;25068;-70
2022/10/26 02:56:05;;;;;;;13.38;4.40;;;14.10;99.90;;;;;;5057978;28;25073;-70
2022/10/26 02:58:36;;;;;;;10.95;3.83;;;14.10;99.90;;;;;;5059575;28;25149;-70
2022/10/26 03:01:03;;;;;;;8.48;3.42;;;14.10;99.90;;;;;;5065539;28;25115;-71
2022/10/26 03:03:28;;;;;;;8.57;3.75;;;14.10;99.90;;;;;;5070320;28;25052;-69
2022/10/26 03:05:54;;;;;;;9.02;3.83;;;14.20;99.90;;;;;;5062888;28;25151;-70
2022/10/26 03:08:19;;;;;;;9.45;3.60;;;14.10;99.90;;;;;;5061493;28;25072;-71
2022/10/26 03:10:45;;;;;;;6.07;3.33;;;14.10;99.90;;;;;;5056578;28;25077;-70
2022/10/26 03:13:12;;;;;;;7.72;4.00;;;14.10;99.90;;;;;;5068229;28;25119;-71
2022/10/26 03:15:38;;;;;;;8.10;4.15;;;14.10;99.90;;;;;;5057381;28;24948;-70
2022/10/26 03:18:04;;;;;;;7.03;3.25;;;14.20;99.90;;;;;;5066893;28;25140;-70
2022/10/26 03:20:30;;;;;;;9.88;3.28;;;14.20;99.90;;;;;;5058491;28;25075;-70
2022/10/26 03:22:56;;;;;;;9.90;4.50;;;14.20;99.90;;;;;;5061517;28;25082;-69
2022/10/26 03:25:25;;;;;;;6.38;3.90;;;14.20;99.90;;;;;;5053409;28;25142;-69
2022/10/26 03:28:02;;;;;;;12.68;4.00;;;14.10;99.90;;;;;;5043977;28;25153;-71
2022/10/26 03:30:28;;;;;;;6.65;3.10;;;14.10;99.90;;;;;;5063301;28;25110;-71
2022/10/26 03:32:54;;;;;;;12.05;4.00;;;14.20;99.90;;;;;;5064113;28;25073;-69
2022/10/26 03:35:20;;;;;;;14.48;3.70;;;14.20;99.90;;;;;;5066415;28;25073;-70
2022/10/26 03:37:46;;;;;;;5.43;3.28;;;14.10;99.90;;;;;;5067552;28;25069;-70
2022/10/26 03:40:12;;;;;;;11.80;4.05;;;14.10;99.90;;;;;;5073035;28;25067;-71
2022/10/26 03:42:38;;;;;;;9.25;3.38;;;14.00;99.90;;;;;;5068987;28;25066;-70
2022/10/26 03:45:05;;;;;;;8.52;3.67;;;14.00;99.90;;;;;;5066700;28;25110;-70
2022/10/26 03:47:31;;;;;;;6.93;4.07;;;14.10;99.90;;;;;;5064013;28;25138;-71
2022/10/26 03:49:57;;;;;;;7.07;3.47;;;14.10;99.90;;;;;;5070185;28;25057;-70
2022/10/26 03:52:23;;;;;;;5.75;3.42;;;14.10;99.90;;;;;;5055703;28;25124;-70
2022/10/26 03:54:49;;;;;;;11.40;4.00;;;14.10;99.90;;;;;;5050100;28;25117;-70
2022/10/26 03:57:15;;;;;;;6.75;3.78;;;14.20;99.90;;;;;;5057622;28;25058;-70
2022/10/26 03:59:41;;;;;;;8.15;3.95;;;14.10;99.90;;;;;;5054777;28;25064;-70
2022/10/26 04:02:06;;;;;;;6.30;4.07;;;14.20;99.90;;;;;;5052203;28;25076;-71
2022/10/26 04:04:32;;;;;;;7.22;3.55;;;14.20;99.90;;;;;;5054579;28;25063;-71
2022/10/26 04:06:58;;;;;;;7.43;3.08;;;14.20;99.90;;;;;;5049078;28;25137;-70
2022/10/26 04:09:23;;;;;;;8.05;3.35;;;14.30;99.90;;;;;;5054400;28;25076;-70
2022/10/26 04:11:49;;;;;;;11.23;3.65;;;14.30;99.90;;;;;;5054993;28;25142;-70
2022/10/26 04:14:14;;;;;;;8.50;4.47;;;14.30;99.90;;;;;;5045940;28;25071;-70
2022/10/26 04:16:40;;;;;;;5.70;3.33;;;14.30;99.90;;;;;;5058305;28;25073;-70
2022/10/26 04:19:06;;;;;;;8.95;3.50;;;14.30;99.90;;;;;;5051490;28;25113;-70
2022/10/26 04:21:32;;;;;;;9.93;4.05;;;14.30;99.90;;;;;;5046994;28;25077;-72
2022/10/26 04:23:57;;;;;;;7.90;3.63;;;14.30;99.90;;;;;;5057664;28;25062;-70
2022/10/26 04:26:23;;;;;;;9.82;4.03;;;14.30;99.90;;;;;;5054105;28;25077;-71
2022/10/26 04:28:49;;;;;;;13.15;3.70;;;14.40;99.90;;;;;;5063396;28;25129;-70
2022/10/26 04:31:14;;;;;;;11.75;4.22;;;14.40;99.90;;;;;;5061095;28;25135;-72
2022/10/26 04:33:40;;;;;;;7.68;3.53;;;14.40;99.90;;;;;;5061778;28;25095;-72
2022/10/26 04:36:06;;;;;;;9.57;3.28;;;14.50;99.90;;;;;;5067625;28;25064;-71
2022/10/26 04:38:32;;;;;;;9.18;3.60;;;14.60;99.90;;;;;;5066332;28;25059;-70
2022/10/26 04:40:57;;;;;;;5.85;3.65;;;14.60;99.90;;;;;;5066764;28;25062;-71
2022/10/26 04:43:23;;;;;;;8.57;3.65;;;14.60;99.90;;;;;;5058846;28;25097;-71
2022/10/26 04:45:48;;;;;;;9.43;3.90;;;14.60;99.90;;;;;;5055140;28;25093;-71
2022/10/26 04:48:14;;;;;;;7.78;3.53;;;14.50;99.90;;;;;;5060654;28;25145;-71
2022/10/26 04:50:40;;;;;;;8.40;3.80;;;14.40;99.90;;;;;;5066824;28;25140;-70
2022/10/26 04:53:07;;;;;;;7.72;3.85;;;14.50;99.90;;;;;;5056036;28;25093;-70
2022/10/26 04:55:34;;;;;;;12.25;4.43;;;14.50;99.90;;;;;;5044030;28;25156;-70
2022/10/26 04:58:00;;;;;;;9.80;4.07;;;14.50;99.90;;;;;;5059309;28;25072;-70
2022/10/26 05:00:26;;;;;;;8.02;3.20;;;14.50;99.90;;;;;;5062674;28;25105;-70
2022/10/26 05:02:51;;;;;;;12.68;3.92;;;14.50;99.90;;;;;;5054138;28;25095;-70
2022/10/26 05:05:17;;;;;;;5.78;3.03;;;14.50;99.90;;;;;;5042020;28;25157;-71
2022/10/26 05:07:43;;;;;;;6.65;3.28;;;14.50;99.90;;;;;;5060594;28;25053;-72
2022/10/26 05:10:09;;;;;;;7.53;3.63;;;14.60;99.90;;;;;;5070185;28;25080;-71
2022/10/26 05:12:34;;;;;;;6.90;3.67;;;14.60;99.90;;;;;;5067523;28;25145;-71
2022/10/26 05:15:00;;;;;;;6.13;3.45;;;14.70;99.90;;;;;;5065215;28;25116;-71
2022/10/26 05:17:26;;;;;;;6.13;3.67;;;14.60;99.90;;;;;;5048843;28;25064;-70
2022/10/26 05:19:54;;;;;;;6.85;3.55;;;14.70;99.90;;;;;;5067057;28;25090;-71
2022/10/26 05:22:23;;;;;;;9.90;3.80;;;14.70;99.90;;;;;;5061521;28;25101;-70
2022/10/26 05:24:49;;;;;;;6.63;3.17;;;14.80;99.90;;;;;;5059956;28;25006;-70
2022/10/26 05:27:15;;;;;;;6.15;3.30;;;14.80;99.90;;;;;;5060630;28;25150;-71
2022/10/26 05:29:40;;;;;;;6.68;3.05;;;14.90;99.90;;;;;;5046152;28;25095;-71
2022/10/26 05:32:06;;;;;;;5.13;2.92;;;14.90;99.90;;;;;;5051867;28;25066;-71
2022/10/26 05:34:31;;;;;;;7.25;3.42;;;14.90;99.90;;;;;;5059741;28;25125;-71
2022/10/26 05:36:57;;;;;;;7.40;3.33;;;14.90;99.90;;;;;;5060731;28;25170;-71
2022/10/26 05:39:22;;;;;;;9.50;3.20;;;14.80;99.90;;;;;;5060765;28;25067;-71
2022/10/26 05:41:48;;;;;;;5.45;3.00;;;14.80;99.90;;;;;;5062454;28;25056;-72
2022/10/26 05:44:14;;;;;;;8.60;3.38;;;14.80;99.90;;;;;;5054631;28;25066;-72
2022/10/26 05:46:39;;;;;;;9.02;3.45;;;14.90;99.90;;;;;;5060118;28;25073;-72
2022/10/26 05:49:05;;;;;;;6.70;2.47;;;15.00;99.90;;;;;;5062463;28;25080;-71
2022/10/26 05:51:36;;;;;;;6.63;3.20;;;14.90;99.90;;;;;;5069113;28;25084;-70
2022/10/26 05:54:02;;;;;;;4.65;2.72;;;14.90;99.90;;;;;;5032443;28;1103163;-71
2022/10/26 05:56:40;;;;;;;4.30;2.53;;;14.90;99.90;;;;;;5069979;28;25066;-69
2022/10/26 05:59:11;;;;;;;6.15;3.13;;;15.00;99.90;;;;;;5059752;28;25138;-71
2022/10/26 06:01:47;;;;;;;10.95;3.00;;;14.90;99.90;;;;;;5048627;28;25097;-72
2022/10/26 06:04:18;;;;;;;5.75;2.85;;;14.90;99.90;;;;;;5075140;28;25065;-72
2022/10/26 06:06:46;;;;;;;8.77;3.33;;;15.00;99.90;;;;;;5063060;28;25153;-74
2022/10/26 06:09:13;;;;;;;6.47;2.28;;;15.00;99.90;;;;;;5067505;28;24995;-71
2022/10/26 06:11:39;;;;;;;7.82;2.35;;;15.00;99.90;;;;;;5050280;28;25097;-71
2022/10/26 06:14:06;;;;;;;3.90;2.33;;;15.00;99.90;;;;;;5061512;28;25069;-70
2022/10/26 06:16:46;;;;;;;6.75;2.33;;;15.00;99.90;;;;;;5056218;28;25098;-72
2022/10/26 06:19:36;;;;;;;7.03;2.65;;;15.00;99.90;;;;;;5054240;28;25096;-72
2022/10/26 06:22:08;;;;;;;4.25;2.30;;;15.00;99.90;;;;;;5052412;28;25090;-72
2022/10/26 06:24:45;;;;;;;3.67;2.67;;;15.00;99.90;;;;;;5052108;28;25064;-72
2022/10/26 06:27:39;;;;;;;3.97;2.22;;;14.90;99.90;;;;;;5058050;28;25128;-71
2022/10/26 06:30:08;;;;;;;6.15;2.20;;;15.00;99.90;;;;;;5056553;28;25059;-72
2022/10/26 06:32:35;;;;;;;3.95;2.08;;;15.00;99.90;;;;;;5056062;28;25061;-72
2022/10/26 06:35:22;;;;;;;4.88;2.63;;;15.00;99.90;;;;;;5060967;28;25070;-72
2022/10/26 06:37:49;;;;;;;3.53;2.03;;;15.00;99.90;;;;;;5062236;28;25071;-71
2022/10/26 06:40:16;;;;;;;3.03;2.05;;;15.00;99.90;;;;;;5062398;28;25089;-71
2022/10/26 06:42:42;;;;;;;4.50;2.17;;;15.00;99.90;;;;;;5060666;28;25102;-71
2022/10/26 06:45:13;;;;;;;4.97;2.03;;;15.00;99.90;;;;;;5037085;28;25064;-71
2022/10/26 06:48:04;;;;;;;5.40;2.30;;;15.00;99.90;;;;;;5051122;28;25041;-72
2022/10/26 06:50:33;;;;;;;5.05;2.50;;;15.10;99.90;;;;;;5062208;28;25117;-72
2022/10/26 06:53:11;;;;;;;6.85;2.30;;;15.00;99.90;;;;;;5067760;28;25093;-72
2022/10/26 06:55:41;;;;;;;7.05;2.38;;;14.90;99.90;;;;;;5062123;28;25076;-71
2022/10/26 06:58:16;;;;;;;5.78;2.67;;;14.90;99.90;;;;;;5055304;28;25127;-71
2022/10/26 07:00:43;;;;;;;4.65;2.28;;;14.90;99.90;;;;;;5061707;28;25057;-72
2022/10/26 07:03:09;;;;;;;6.22;2.38;;;15.00;99.90;;;;;;5051766;28;25068;-73
2022/10/26 07:05:35;;;;;;;3.38;2.30;;;15.00;99.90;;;;;;5049946;28;25119;-72
2022/10/26 07:08:00;;;;;;;6.65;2.25;;;14.90;99.90;;;;;;5062855;28;25103;-72
2022/10/26 07:10:26;;;;;;;8.73;2.10;;;15.00;99.90;;;;;;5074856;28;25060;-72
2022/10/26 07:12:51;;;;;;;6.13;2.35;;;15.00;99.90;;;;;;5061814;28;25150;-72
2022/10/26 07:15:17;;;;;;;3.50;1.90;;;15.00;99.90;;;;;;5069980;28;25195;-74
2022/10/26 07:17:44;;;;;;;5.45;2.38;;;15.10;99.90;;;;;;5076236;28;25165;-74
2022/10/26 07:20:11;;;;;;;7.95;2.28;;;15.10;99.90;;;;;;5069675;28;25104;-73
2022/10/26 07:22:36;;;;;;;14.10;2.50;;;15.00;99.90;;;;;;5067446;28;25120;-73
2022/10/26 07:25:02;;;;;;;4.00;2.22;;;15.00;99.90;;;;;;5068347;28;25078;-78
2022/10/26 07:27:28;;;;;;;4.80;2.40;;;15.00;99.90;;;;;;5074978;28;25105;-77
2022/10/26 07:29:53;;;;;;;3.13;2.55;;;15.10;99.90;;;;;;5074297;28;25057;-72
2022/10/26 07:32:19;;;;;;;7.57;2.67;;;15.10;99.90;;;;;;5074269;28;25051;-74
2022/10/26 07:34:44;;;;;;;4.25;2.60;;;15.00;99.90;;;;;;5074490;28;25050;-76
2022/10/26 07:37:10;;;;;;;9.48;2.63;;;14.90;99.90;;;;;;5069351;28;25096;-77
2022/10/26 07:39:35;;;;;;;4.35;2.40;;;14.90;99.90;;;;;;5064934;28;25063;-74
2022/10/26 07:42:01;;;;;;;6.28;2.50;;;15.00;99.90;;;;;;5063882;28;25070;-77
2022/10/26 07:44:27;;;;;;;8.13;2.35;;;15.10;99.90;;;;;;5064234;28;25114;-77
2022/10/26 07:46:52;;;;;;;6.55;2.55;;;15.00;99.90;;;;;;5062936;28;25112;-73
2022/10/26 07:49:18;;;;;;;6.60;2.60;;;15.00;99.90;;;;;;5070433;28;25119;-77
2022/10/26 07:51:43;;;;;;;5.07;2.40;;;15.10;99.90;;;;;;5065119;28;25056;-74
2022/10/26 07:54:09;;;;;;;7.47;2.33;;;15.20;99.90;;;;;;5058104;28;25053;-75
2022/10/26 07:56:35;;;;;;;3.45;2.00;;;15.20;99.90;;;;;;5072897;28;25070;-75
2022/10/26 07:59:00;;;;;;;5.50;2.40;;;15.30;99.90;;;;;;5069334;28;25056;-75
2022/10/26 08:01:26;;;;;;;5.22;2.60;;;15.40;99.90;;;;;;5053042;28;25059;-78
2022/10/26 08:03:52;;;;;;;6.15;3.40;;;15.40;99.90;;;;;;5068361;28;25080;-77
2022/10/26 08:06:19;;;;;;;3.65;2.22;;;15.40;99.90;;;;;;5076687;28;25076;-77
2022/10/26 08:08:45;;;;;;;6.18;2.67;;;15.50;99.90;;;;;;5069096;28;25070;-78
2022/10/26 08:11:11;;;;;;;7.03;2.72;;;15.50;99.90;;;;;;5069868;28;25143;-74
2022/10/26 08:13:37;;;;;;;7.55;2.42;;;15.60;99.90;;;;;;5067431;28;25132;-73
2022/10/26 08:16:04;;;;;;;6.72;2.92;;;15.60;99.90;;;;;;5072850;28;25066;-76
2022/10/26 08:18:30;;;;;;;8.88;3.22;;;15.60;99.90;;;;;;5063919;28;25107;-72
2022/10/26 08:21:10;;;;;;;7.95;2.63;;;15.60;99.90;;;;;;5067767;28;25157;-77
2022/10/26 08:23:36;;;;;;;10.88;3.45;;;15.70;99.90;;;;;;5068970;28;25077;-75
2022/10/26 08:26:02;;;;;;;4.88;2.25;;;15.80;99.90;;;;;;5061720;28;25149;-75
2022/10/26 08:28:29;;;;;;;8.40;2.70;;;15.90;99.90;;;;;;5066980;28;25065;-73
2022/10/26 08:30:55;;;;;;;10.90;2.33;;;15.90;99.90;;;;;;5057664;28;25090;-76
2022/10/26 08:33:22;;;;;;;8.75;2.80;;;15.90;99.90;;;;;;5054043;28;25066;-77
2022/10/26 08:35:53;;;;;;;5.00;2.50;;;16.00;99.90;;;;;;5072605;28;25051;-77
2022/10/26 08:38:18;;;;;;;10.35;2.45;;;16.00;99.90;;;;;;5063488;28;25062;-73
2022/10/26 08:40:44;;;;;;;6.15;2.90;;;16.10;99.90;;;;;;5064499;28;25091;-76
2022/10/26 08:43:33;;;;;;;6.95;2.13;;;16.20;99.90;;;;;;5064526;28;25145;-77
2022/10/26 08:46:10;;;;;;;5.15;2.40;;;16.50;99.90;;;;;;5063238;28;25080;-79
2022/10/26 08:48:39;;;;;;;6.28;2.20;;;16.60;99.90;;;;;;5054550;28;25107;-73
2022/10/26 08:51:15;;;;;;;3.55;2.13;;;16.70;99.90;;;;;;5061419;28;25071;-77
2022/10/26 08:54:00;;;;;;;7.35;2.58;;;16.80;99.90;;;;;;5060693;28;25078;-76
2022/10/26 08:56:31;;;;;;;5.13;2.03;;;16.80;99.90;;;;;;5062316;28;25058;-76
2022/10/26 08:59:05;;;;;;;6.72;2.60;;;16.90;99.90;;;;;;5063364;28;25058;-74
2022/10/26 09:01:32;;;;;;;5.78;2.08;;;17.00;99.90;;;;;;5057555;28;25078;-77
2022/10/26 09:04:01;;;;;;;7.80;2.33;;;17.10;99.90;;;;;;5069298;28;25072;-74
2022/10/26 09:06:48;;;;;;;3.10;2.00;;;17.10;99.90;;;;;;5054793;28;25135;-76
2022/10/26 09:09:22;;;;;;;4.75;2.10;;;17.10;99.90;;;;;;5043155;28;25137;-79
2022/10/26 09:12:09;;;;;;;4.88;2.40;;;17.20;99.90;;;;;;5056713;28;25066;-76
2022/10/26 09:15:13;;;;;;;8.75;2.75;;;17.30;99.90;;;;;;5058255;28;25058;-78
2022/10/26 09:17:47;;;;;;;7.18;2.30;;;17.30;99.90;;;;;;4972869;28;25066;-77
2022/10/26 09:20:37;;;;;;;3.67;2.10;;;17.20;99.90;;;;;;5050584;28;25069;-78
2022/10/26 09:23:27;;;;;;;4.07;2.22;;;17.20;99.90;;;;;;5071162;28;25061;-81
2022/10/26 09:26:00;;;;;;;8.75;2.58;;;17.30;99.90;;;;;;5060150;28;25075;-77
2022/10/26 09:28:29;;;;;;;8.10;2.78;;;17.50;99.90;;;;;;5060585;28;25135;-76
2022/10/26 09:30:57;;;;;;;3.97;2.13;;;17.50;99.90;;;;;;5053134;28;25077;-79
2022/10/26 09:33:24;;;;;;;6.03;2.28;;;17.60;99.90;;;;;;5052657;28;25070;-79
2022/10/26 09:36:01;;;;;;;6.45;2.58;;;17.60;99.90;;;;;;5062483;28;25077;-79
2022/10/26 09:38:42;;;;;;;4.97;2.03;;;17.50;99.90;;;;;;5053075;28;25053;-77
2022/10/26 09:41:21;;;;;;;8.27;2.70;;;17.60;99.90;;;;;;5056151;28;25055;-79
2022/10/26 09:43:49;;;;;;;5.75;2.40;;;17.60;99.90;;;;;;5054082;28;25067;-73
2022/10/26 09:46:20;;;;;;;8.77;2.72;;;17.60;99.90;;;;;;5062504;28;25128;-77
2022/10/26 09:48:52;;;;;;;7.20;2.53;;;17.80;99.90;;;;;;5060176;28;25125;-75
2022/10/26 09:51:18;;;;;;;4.47;2.30;;;17.80;99.90;;;;;;5063589;28;25106;-84
2022/10/26 09:53:45;;;;;;;6.53;2.38;;;17.80;99.90;;;;;;5061621;28;25099;-83
2022/10/26 09:56:12;;;;;;;3.10;2.00;;;17.90;99.90;;;;;;5063875;28;25075;-78
2022/10/26 09:59:00;;;;;;;8.90;2.20;;;18.00;99.90;;;;;;5069828;28;25147;-72
2022/10/26 10:01:26;;;;;;;6.45;2.05;;;18.00;99.90;;;;;;5071451;28;25094;-72
2022/10/26 10:04:19;;;;;;;9.40;2.60;;;18.10;99.90;;;;;;5065211;28;25177;-74
2022/10/26 10:06:45;;;;;;;;;;;18.10;99.90;;;;;;5064838;28;25077;-79
2022/10/26 10:09:11;;;;;;;5.60;2.40;;;18.00;99.90;;;;;;5045644;28;24077;-80
2022/10/26 10:11:53;;;;;;;3.15;2.20;;;18.00;99.90;;;;;;5070512;28;25059;-79
2022/10/26 10:14:19;;;;;;;8.10;2.97;;;17.90;99.90;;;;;;5075840;28;25062;-77
2022/10/26 10:16:54;;;;;;;6.60;3.08;;;17.90;99.90;;;;;;5069096;28;25110;-75
2022/10/26 10:19:23;;;;;;;3.83;2.78;;;17.90;99.90;;;;;;5057887;28;25169;-77
2022/10/26 10:21:51;;;;;;;7.53;2.47;;;17.80;99.90;;;;;;5066602;28;25055;-76
2022/10/26 10:24:21;;;;;;;11.25;3.00;;;17.80;99.90;;;;;;5073621;28;25092;-73
2022/10/26 10:26:56;;;;;;;9.18;3.00;;;17.80;99.90;;;;;;5074092;28;25074;-73
2022/10/26 10:29:25;;;;;;;9.05;2.42;;;17.70;99.90;;;;;;5073840;28;25079;-78
2022/10/26 10:31:59;;;;;;;4.90;2.30;;;17.60;99.90;;;;;;5065759;28;25061;-76
2022/10/26 10:34:25;;;;;;;6.50;2.85;;;17.70;99.90;;;;;;5065324;28;25108;-75
2022/10/26 10:36:51;;;;;;;6.60;2.83;;;17.70;99.90;;;;;;5069511;28;25166;-78
2022/10/26 10:39:39;;;;;;;4.15;2.88;;;17.70;99.90;;;;;;5075048;28;25067;-76
2022/10/26 10:42:17;;;;;;;12.93;3.17;;;17.70;99.90;;;;;;5077855;28;25065;-76
2022/10/26 10:44:45;;;;;;;3.85;2.30;;;17.80;99.90;;;;;;5077865;28;25104;-75
2022/10/26 10:47:20;;;;;;;6.20;2.63;;;17.90;99.90;;;;;;5074332;28;24995;-75
2022/10/26 10:50:17;;;;;;;7.70;2.42;;;18.00;99.90;;;;;;5080331;28;25078;-74
2022/10/26 10:52:43;;;;;;;4.05;2.30;;;18.10;99.90;;;;;;5076360;28;25086;-77
2022/10/26 10:55:09;;;;;;;8.23;2.70;;;18.40;99.90;;;;;;5080978;28;25057;-76
2022/10/26 10:58:02;;;;;;;6.80;2.00;;;18.70;99.90;;;;;;5071234;28;25124;-78
2022/10/26 11:00:32;;;;;;;7.40;1.98;;;18.80;99.90;;;;;;5070269;28;25070;-78
2022/10/26 11:03:23;;;;;;;4.22;2.30;;;19.00;99.90;;;;;;5065138;28;25084;-78
2022/10/26 11:06:11;;;;;;;4.05;1.92;;;19.00;99.90;;;;;;5063010;28;25102;-77
2022/10/26 11:09:02;;;;;;;6.53;2.33;;;19.10;99.90;;;;;;5066419;28;25083;-76
2022/10/26 11:11:34;;;;;;;3.90;2.37;;;19.20;99.90;;;;;;5064195;28;25090;-79
2022/10/26 11:14:15;;;;;;;4.70;2.13;;;19.40;99.90;;;;;;5061270;28;25067;-74
2022/10/26 11:17:19;;;;;;;3.65;2.08;;;19.30;99.90;;;;;;5063772;28;25060;-73
2022/10/26 11:19:49;;;;;;;6.97;2.83;;;19.40;99.90;;;;;;4966758;28;25137;-75
2022/10/26 11:22:24;;;;;;;5.78;2.80;;;19.30;99.90;;;;;;5048348;28;25126;-74
2022/10/26 11:24:57;;;;;;;5.57;3.15;;;19.40;99.90;;;;;;5066214;28;25065;-78
2022/10/26 11:27:38;;;;;;;7.72;2.92;;;19.30;99.90;;;;;;5051176;28;25074;-73
2022/10/26 11:30:19;;;;;;;6.68;2.78;;;19.20;99.90;;;;;;5058274;28;25141;-74
2022/10/26 11:32:55;;;;;;;5.60;2.90;;;19.30;99.90;;;;;;5038855;28;25065;-79
2022/10/26 11:35:30;;;;;;;6.63;2.55;;;19.30;99.90;;;;;;5064134;28;25172;-77
2022/10/26 11:38:29;;;;;;;6.20;2.67;;;18.90;99.90;;;;;;5064704;28;25060;-77
2022/10/26 11:41:13;;;;;;;4.68;2.40;;;18.80;99.90;;;;;;5061045;28;25042;-75
2022/10/26 11:43:44;;;;;;;7.80;2.45;;;19.20;99.90;;;;;;5067933;28;25099;-77
2022/10/26 11:46:17;;;;;;;5.00;2.20;;;19.70;99.90;;;;;;5064874;28;25065;-77
2022/10/26 11:49:04;;;;;;;5.43;2.53;;;20.20;99.90;;;;;;5065969;28;25064;-74
2022/10/26 11:51:53;;;;;;;5.43;1.90;;;20.10;99.90;;;;;;5069424;28;25063;-77
2022/10/26 11:54:24;;;;;;;4.53;1.73;;;20.00;99.90;;;;;;5063965;28;25135;-76
2022/10/26 11:56:54;;;;;;;8.07;2.03;;;20.30;99.90;;;;;;5059266;28;25079;-77
2022/10/26 11:59:23;;;;;;;7.45;2.30;;;20.60;99.90;;;;;;5059422;28;25165;-79
2022/10/26 12:01:56;;;;;;;8.77;2.35;;;20.50;99.90;;;;;;5063348;28;25062;-75
2022/10/26 12:04:27;;;;;;;5.90;1.85;;;20.50;99.90;;;;;;5057968;28;25073;-77
2022/10/26 12:06:55;;;;;;;6.40;2.20;;;20.90;99.90;;;;;;5065484;28;25079;-74
2022/10/26 12:09:25;;;;;;;3.72;1.73;;;21.20;99.90;;;;;;5065232;28;25061;-76
2022/10/26 12:12:10;;;;;;;3.65;2.20;;;21.50;99.90;;;;;;5065087;28;25154;-73
2022/10/26 12:14:46;;;;;;;6.75;1.73;;;21.20;99.90;;;;;;5066232;28;25088;-73
2022/10/26 12:17:18;;;;;;;4.38;1.90;;;21.20;99.90;;;;;;5058119;28;25074;-76
2022/10/26 12:20:17;;;;;;;8.80;2.65;;;21.10;99.90;;;;;;5041111;28;25058;-74
2022/10/26 12:22:43;;;;;;;7.25;2.53;;;21.40;99.90;;;;;;5060675;28;25082;-76
2022/10/26 12:25:11;;;;;;;4.43;1.48;;;21.30;99.90;;;;;;5058084;28;25093;-80
2022/10/26 12:27:40;;;;;;;11.27;2.63;;;21.30;99.90;;;;;;5057522;28;25068;-73
2022/10/26 12:30:17;;;;;;;8.43;1.80;;;21.40;99.90;;;;;;5061018;28;25075;-77
2022/10/26 12:32:43;;;;;;;7.13;2.13;;;21.40;99.90;;;;;;5053583;28;25091;-75
2022/10/26 12:35:42;;;;;;;4.80;1.55;;;21.70;99.90;;;;;;5063068;28;25102;-76
2022/10/26 12:38:23;;;;;;;4.30;1.77;;;21.80;99.90;;;;;;5056883;28;25093;-81
2022/10/26 12:41:12;;;;;;;14.32;2.40;;;21.90;99.90;;;;;;5056650;28;25095;-78
2022/10/26 12:43:39;;;;;;;7.30;2.30;;;21.70;99.90;;;;;;5060989;28;25139;-79
2022/10/26 12:46:11;;;;;;;9.00;2.08;;;21.70;99.90;;;;;;5077576;28;25063;-78
2022/10/26 12:48:47;;;;;;;5.95;2.10;;;21.70;99.90;;;;;;5080047;28;25069;-72
2022/10/26 12:51:23;;;;;;;7.78;2.28;;;21.60;99.90;;;;;;5058257;28;25105;-75
2022/10/26 12:54:08;;;;;;;5.47;1.60;;;21.40;99.90;;;;;;5047303;28;25090;-75
2022/10/26 12:57:07;;;;;;;3.60;1.83;;;21.20;99.90;;;;;;5053319;28;25062;-73
2022/10/26 12:59:41;;;;;;;4.07;1.55;;;21.40;99.90;;;;;;5057675;28;25056;-74
2022/10/26 13:02:26;;;;;;;7.45;2.47;;;21.30;99.90;;;;;;5053741;28;25073;-76
2022/10/26 13:05:30;;;;;;;3.67;2.15;;;21.30;99.90;;;;;;5055338;28;25066;-73
2022/10/26 13:08:10;;;;;;;5.00;1.40;;;21.30;99.90;;;;;;4990462;28;25077;-73